Terminal Aerodrome Forecast
Issued by NWS Charleston, WV

Current Version | Previous Version | Graphics & Text | Print | Product List | Glossary On
Versions: 1 2 3 4 5 6 7 8 9 10 11 12 13 14 15 16 17 18 19 20 21
000
FTUS41 KRLX 080500
TAFPKB
TAF
KPKB 080530Z 0806/0906 VRB03KT P6SM BKN040
     FM081600 21012G17KT 6SM BR VCTS BKN040CB
     FM081900 25011G17KT 5SM TSRA BR BKN035CB
     FM090000 25009G14KT P6SM VCTS BKN035CB
     FM090400 26007KT P6SM BKN035
      AMD NOT SKED=

USA.gov is the U.S. government's official web portal to all federal, state and local government web resources and services.